createdAt,value
2019-06-26T00:01:57.184Z,97671.89
2019-06-26T00:04:24.712Z,97671.91
2019-06-26T00:06:52.188Z,97669.22
2019-06-26T00:09:19.819Z,97671.33
2019-06-26T00:11:47.276Z,97666.95
2019-06-26T00:14:14.817Z,97668.73
2019-06-26T00:16:42.264Z,97670.81
2019-06-26T00:19:10.069Z,97669.84
2019-06-26T00:21:37.490Z,97664.78
2019-06-26T00:24:04.932Z,97660.44
2019-06-26T00:26:32.382Z,97662.53
2019-06-26T00:28:59.790Z,97664.75
2019-06-26T00:31:27.217Z,97670.83
2019-06-26T00:33:54.789Z,97677.66
2019-06-26T00:36:22.267Z,97673.17
2019-06-26T00:38:49.877Z,97679.62
2019-06-26T00:41:17.284Z,97679.89
2019-06-26T00:43:46.263Z,97675.63
2019-06-26T00:46:13.709Z,97676.40
2019-06-26T00:48:41.460Z,97680.86
2019-06-26T00:51:08.891Z,97677.13
2019-06-26T00:53:36.377Z,97684.20
2019-06-26T00:56:03.904Z,97679.83
2019-06-26T00:58:31.513Z,97681.78
2019-06-26T01:00:58.996Z,97682.11
2019-06-26T01:03:26.705Z,97672.12
2019-06-26T01:05:54.145Z,97680.93
2019-06-26T01:08:21.604Z,97683.27
2019-06-26T01:10:49.034Z,97676.74
2019-06-26T01:13:16.461Z,97680.93
2019-06-26T01:15:43.913Z,97673.81
2019-06-26T01:18:11.600Z,97676.13
2019-06-26T01:20:39.080Z,97669.84
2019-06-26T01:23:06.521Z,97676.30
2019-06-26T01:25:33.938Z,97677.33
2019-06-26T01:28:01.418Z,97675.58
2019-06-26T01:30:28.867Z,97677.22
2019-06-26T01:32:56.621Z,97676.76
2019-06-26T01:35:24.069Z,97679.34
2019-06-26T01:37:51.502Z,97688.91
2019-06-26T01:40:19.335Z,97675.53
2019-06-26T01:42:46.845Z,97677.19
2019-06-26T01:45:14.431Z,97675.08
2019-06-26T01:47:41.967Z,97668.41
2019-06-26T01:50:09.537Z,97673.61
2019-06-26T01:52:37.212Z,97670.48
2019-06-26T01:55:06.213Z,97676.91
2019-06-26T01:57:33.644Z,97673.33
2019-06-26T02:00:01.055Z,97675.14
2019-06-26T02:02:28.493Z,97676.84
2019-06-26T02:04:55.979Z,97682.35
2019-06-26T02:07:22.926Z,97677.83
2019-06-26T02:09:49.944Z,97678.81
2019-06-26T02:12:17.368Z,97675.41
2019-06-26T02:14:44.813Z,97675.81
2019-06-26T02:17:12.349Z,97674.06
2019-06-26T02:19:39.764Z,97679.27
2019-06-26T02:22:07.947Z,97681.59
2019-06-26T02:24:35.395Z,97681.44
2019-06-26T02:27:03.207Z,97685.29
2019-06-26T02:29:30.732Z,97678.59
2019-06-26T02:31:58.198Z,97678.59
2019-06-26T02:34:25.611Z,97672.49
2019-06-26T02:36:53.160Z,97675.23
2019-06-26T02:39:20.581Z,97674.91
2019-06-26T02:41:47.996Z,97676.00
2019-06-26T02:44:15.629Z,97680.27
2019-06-26T02:46:43.115Z,97677.52
2019-06-26T02:49:10.558Z,97682.61
2019-06-26T02:51:38.294Z,97687.05
2019-06-26T02:54:05.751Z,97685.55
2019-06-26T02:56:33.235Z,97687.06
2019-06-26T02:59:00.803Z,97683.38
2019-06-26T03:01:28.238Z,97687.92
2019-06-26T03:03:55.663Z,97686.77
2019-06-26T03:06:23.248Z,97690.95
2019-06-26T03:08:50.853Z,97690.69
2019-06-26T03:11:18.352Z,97691.29
2019-06-26T03:13:45.775Z,97690.87
2019-06-26T03:16:14.037Z,97689.78
2019-06-26T03:21:15.809Z,97690.95
2019-06-26T03:23:43.358Z,97692.84
2019-06-26T03:26:10.807Z,97694.38
2019-06-26T03:28:38.274Z,97696.12
2019-06-26T03:31:05.761Z,97696.39
2019-06-26T03:33:33.218Z,97695.79
2019-06-26T03:36:00.644Z,97701.73
2019-06-26T03:38:28.257Z,97704.25
2019-06-26T03:40:55.805Z,97701.87
2019-06-26T03:43:23.221Z,97705.66
2019-06-26T03:45:50.714Z,97709.39
2019-06-26T03:48:18.202Z,97706.63
2019-06-26T03:50:45.863Z,97714.16
2019-06-26T03:53:13.285Z,97718.08
2019-06-26T03:55:40.901Z,97718.52
2019-06-26T03:58:08.399Z,97715.68
2019-06-26T04:00:38.444Z,97718.36
2019-06-26T04:03:05.839Z,97721.45
2019-06-26T04:05:33.372Z,97722.47
2019-06-26T04:10:27.512Z,97729.58
2019-06-26T04:12:54.941Z,97731.16
2019-06-26T04:15:22.350Z,97731.16
2019-06-26T04:17:49.758Z,97733.59
2019-06-26T04:20:17.224Z,97735.84
2019-06-26T04:22:47.581Z,97736.73
2019-06-26T04:25:12.260Z,97739.86
2019-06-26T04:27:39.671Z,97737.66
2019-06-26T04:30:07.130Z,97744.11
2019-06-26T04:32:34.573Z,97742.63
2019-06-26T04:35:02.309Z,97746.39
2019-06-26T04:37:29.805Z,97749.77
2019-06-26T04:39:57.657Z,97745.26
2019-06-26T04:42:25.107Z,97740.00
2019-06-26T04:44:52.547Z,97746.78
2019-06-26T04:47:20.737Z,97745.73
2019-06-26T04:49:48.304Z,97746.57
2019-06-26T04:52:15.677Z,97740.70
2019-06-26T04:54:43.413Z,97747.68
2019-06-26T04:57:10.885Z,97750.27
2019-06-26T04:59:38.554Z,97750.95
2019-06-26T05:02:05.979Z,97745.50
2019-06-26T05:04:34.276Z,97752.53
2019-06-26T05:07:02.532Z,97750.34
2019-06-26T05:09:30.094Z,97745.49
2019-06-26T05:11:57.520Z,97754.95
2019-06-26T05:14:24.940Z,97752.67
2019-06-26T05:16:52.381Z,97754.49
2019-06-26T05:19:20.239Z,97750.11
2019-06-26T05:21:47.702Z,97754.60
2019-06-26T05:24:15.771Z,97750.52
2019-06-26T05:26:43.169Z,97751.51
2019-06-26T05:29:10.720Z,97743.77
2019-06-26T05:31:38.123Z,97747.93
2019-06-26T05:34:05.572Z,97754.30
2019-06-26T05:36:32.985Z,97755.92
2019-06-26T05:39:00.714Z,97749.20
2019-06-26T05:41:28.112Z,97758.52
2019-06-26T05:43:55.680Z,97754.75
2019-06-26T05:46:31.010Z,97750.82
2019-06-26T05:48:50.695Z,97751.18
2019-06-26T05:51:18.151Z,97751.33
2019-06-26T05:53:45.904Z,97758.86
2019-06-26T05:56:14.135Z,97757.06
2019-06-26T05:58:41.817Z,97760.95
2019-06-26T06:01:09.460Z,97762.55
2019-06-26T06:03:36.870Z,97760.92
2019-06-26T06:06:04.494Z,97757.33
2019-06-26T06:08:32.030Z,97760.09
2019-06-26T06:10:59.463Z,97756.84
2019-06-26T06:13:27.777Z,97760.09
2019-06-26T06:15:55.201Z,97757.78
2019-06-26T06:18:22.870Z,97752.49
2019-06-26T06:20:50.895Z,97762.30
2019-06-26T06:23:18.529Z,97764.09
2019-06-26T06:25:45.985Z,97771.81
2019-06-26T06:28:13.407Z,97769.59
2019-06-26T06:30:40.893Z,97759.36
2019-06-26T06:33:08.555Z,97769.78
2019-06-26T06:35:36.097Z,97774.61
2019-06-26T06:38:03.830Z,97773.48
2019-06-26T06:40:31.251Z,97777.45
2019-06-26T06:42:58.726Z,97781.21
2019-06-26T06:45:27.781Z,97781.86
2019-06-26T06:47:55.819Z,97784.29
2019-06-26T06:50:23.440Z,97790.77
2019-06-26T06:52:51.804Z,97792.48
2019-06-26T06:55:19.254Z,97789.06
2019-06-26T06:57:46.686Z,97795.66
2019-06-26T07:00:14.296Z,97794.23
2019-06-26T07:02:41.837Z,97794.19
2019-06-26T07:05:09.363Z,97796.30
2019-06-26T07:07:36.953Z,97794.73
2019-06-26T07:10:05.292Z,97803.19
2019-06-26T07:12:33.737Z,97799.65
2019-06-26T07:15:01.026Z,97803.52
2019-06-26T07:17:28.642Z,97799.08
2019-06-26T07:19:56.150Z,97801.53
2019-06-26T07:22:23.604Z,97803.95
2019-06-26T07:24:51.028Z,97811.34
2019-06-26T07:27:18.507Z,97811.70
2019-06-26T07:29:45.926Z,97815.84
2019-06-26T07:32:13.916Z,97808.58
2019-06-26T07:34:41.655Z,97806.75
2019-06-26T07:37:09.585Z,97813.45
2019-06-26T07:39:37.094Z,97807.16
2019-06-26T07:42:04.914Z,97808.55
2019-06-26T07:44:32.436Z,97809.83
2019-06-26T07:47:00.626Z,97808.88
2019-06-26T07:49:28.119Z,97810.16
2019-06-26T07:51:55.633Z,97810.24
2019-06-26T07:54:23.217Z,97818.17
2019-06-26T07:56:50.749Z,97817.14
2019-06-26T07:59:18.153Z,97819.30
2019-06-26T08:01:46.222Z,97815.86
2019-06-26T08:04:13.674Z,97822.56
2019-06-26T08:06:42.363Z,97819.33
2019-06-26T08:09:09.799Z,97820.69
2019-06-26T08:11:37.254Z,97824.84
2019-06-26T08:14:04.682Z,97818.17
2019-06-26T08:16:34.399Z,97825.55
2019-06-26T08:18:59.634Z,97827.42
2019-06-26T08:21:28.610Z,97825.85
2019-06-26T08:23:56.116Z,97826.63
2019-06-26T08:26:23.799Z,97828.49
2019-06-26T08:28:51.262Z,97826.99
2019-06-26T08:31:19.190Z,97825.36
2019-06-26T08:33:46.606Z,97830.65
2019-06-26T08:36:14.233Z,97833.47
2019-06-26T08:38:41.663Z,97822.65
2019-06-26T08:41:09.161Z,97828.67
2019-06-26T08:43:36.588Z,97832.98
2019-06-26T08:46:04.199Z,97828.68
2019-06-26T08:48:39.394Z,97827.13
2019-06-26T08:51:01.306Z,97828.37
2019-06-26T08:53:28.735Z,97827.33
2019-06-26T08:55:56.267Z,97821.30
2019-06-26T08:58:23.740Z,97823.14
2019-06-26T09:00:51.287Z,97827.20
2019-06-26T09:03:18.883Z,97820.63
2019-06-26T09:05:48.439Z,97825.12
2019-06-26T09:08:14.673Z,97830.75
2019-06-26T09:10:44.806Z,97826.47
2019-06-26T09:13:09.731Z,97821.78
2019-06-26T09:15:37.484Z,97818.03
2019-06-26T09:18:04.904Z,97820.13
2019-06-26T09:20:36.159Z,97819.39
2019-06-26T09:23:03.693Z,97819.70
2019-06-26T09:25:32.009Z,97820.02
2019-06-26T09:27:59.475Z,97823.83
2019-06-26T09:30:27.111Z,97822.58
2019-06-26T09:32:54.511Z,97824.08
2019-06-26T09:35:21.951Z,97821.42
2019-06-26T09:37:49.423Z,97828.52
2019-06-26T09:40:16.853Z,97825.02
2019-06-26T09:42:44.267Z,97830.25
2019-06-26T09:45:11.959Z,97829.26
2019-06-26T09:47:39.391Z,97835.25
2019-06-26T09:50:06.801Z,97831.42
2019-06-26T09:52:34.231Z,97825.53
2019-06-26T09:55:02.087Z,97824.98
2019-06-26T09:57:29.350Z,97832.10
2019-06-26T09:59:57.350Z,97833.75
2019-06-26T10:02:24.786Z,97830.88
2019-06-26T10:04:52.475Z,97830.20
2019-06-26T10:07:19.569Z,97825.34
2019-06-26T10:09:46.859Z,97824.62
2019-06-26T10:12:13.862Z,97827.20
2019-06-26T10:14:47.205Z,97822.11
2019-06-26T10:17:08.441Z,97829.19
2019-06-26T10:19:36.205Z,97824.30
2019-06-26T10:22:03.647Z,97834.67
2019-06-26T10:24:31.500Z,97830.69
2019-06-26T10:26:58.929Z,97826.72
2019-06-26T10:29:26.626Z,97826.02
2019-06-26T10:31:54.264Z,97823.83
2019-06-26T10:34:21.679Z,97823.30
2019-06-26T10:36:49.089Z,97819.76
2019-06-26T10:39:16.708Z,97814.12
2019-06-26T10:41:44.171Z,97815.66
2019-06-26T10:44:11.609Z,97815.41
2019-06-26T10:46:39.001Z,97819.66
2019-06-26T10:49:06.417Z,97814.13
2019-06-26T10:51:33.837Z,97810.59
2019-06-26T10:54:01.257Z,97814.30
2019-06-26T10:56:28.979Z,97815.78
2019-06-26T10:58:56.476Z,97817.45
2019-06-26T11:01:24.020Z,97813.78
2019-06-26T11:03:52.062Z,97807.11
2019-06-26T11:06:19.457Z,97806.16
2019-06-26T11:08:47.173Z,97805.30
2019-06-26T11:11:14.675Z,97804.13
2019-06-26T11:13:42.100Z,97801.55
2019-06-26T11:16:09.516Z,97799.56
2019-06-26T11:18:37.424Z,97798.05
2019-06-26T11:21:04.842Z,97800.53
2019-06-26T11:23:32.475Z,97789.85
2019-06-26T11:25:59.969Z,97795.52
2019-06-26T11:28:27.839Z,97789.22
2019-06-26T11:30:55.273Z,97789.50
2019-06-26T11:33:22.866Z,97787.64
2019-06-26T11:35:50.286Z,97782.61
2019-06-26T11:38:18.582Z,97780.83
2019-06-26T11:40:46.005Z,97780.39
2019-06-26T11:43:13.619Z,97774.00
2019-06-26T11:45:41.034Z,97768.91
2019-06-26T11:48:08.545Z,97767.33
2019-06-26T11:50:36.127Z,97767.70
2019-06-26T11:53:03.123Z,97763.40
2019-06-26T11:55:30.658Z,97758.13
2019-06-26T11:57:58.820Z,97755.34
2019-06-26T12:00:26.613Z,97752.84
2019-06-26T12:02:54.675Z,97752.43
2019-06-26T12:05:22.228Z,97747.41
2019-06-26T12:07:49.664Z,97742.41
2019-06-26T12:10:17.104Z,97749.27
2019-06-26T12:12:44.907Z,97744.31
2019-06-26T12:15:12.658Z,97741.59
2019-06-26T12:17:40.095Z,97737.37
2019-06-26T12:20:18.686Z,97740.45
2019-06-26T12:22:36.114Z,97736.45
2019-06-26T12:25:03.644Z,97732.63
2019-06-26T12:27:31.308Z,97727.05
2019-06-26T12:29:59.216Z,97727.95
2019-06-26T12:32:26.738Z,97729.58
2019-06-26T12:34:54.354Z,97726.91
2019-06-26T12:37:36.645Z,97728.13
2019-06-26T12:39:49.539Z,97726.76
2019-06-26T12:42:17.836Z,97719.14
2019-06-26T12:44:45.243Z,97721.28
2019-06-26T12:47:12.756Z,97714.38
2019-06-26T12:49:40.194Z,97715.77
2019-06-26T12:52:07.649Z,97706.86
2019-06-26T12:54:35.078Z,97703.27
2019-06-26T12:57:03.039Z,97702.31
2019-06-26T12:59:30.509Z,97707.56
2019-06-26T13:01:58.257Z,97704.06
2019-06-26T13:04:25.784Z,97706.97
2019-06-26T13:06:53.270Z,97701.60
2019-06-26T13:09:21.164Z,97702.91
2019-06-26T13:11:49.102Z,97702.44
2019-06-26T13:14:16.770Z,97698.46
2019-06-26T13:16:45.194Z,97692.09
2019-06-26T13:19:12.608Z,97691.57
2019-06-26T13:21:40.384Z,97694.30
2019-06-26T13:24:08.851Z,97694.13
2019-06-26T13:26:36.443Z,97688.10
2019-06-26T13:29:03.905Z,97685.54
2019-06-26T13:31:31.649Z,97681.56
2019-06-26T13:33:59.105Z,97680.48
2019-06-26T13:36:26.700Z,97685.31
2019-06-26T13:38:54.114Z,97687.73
2019-06-26T13:41:22.415Z,97686.13
2019-06-26T13:43:49.852Z,97681.27
2019-06-26T13:46:17.309Z,97678.31
2019-06-26T13:48:44.703Z,97677.88
2019-06-26T13:51:12.381Z,97675.85
2019-06-26T13:53:39.876Z,97677.84
2019-06-26T13:56:07.410Z,97673.73
2019-06-26T13:58:35.023Z,97669.16
2019-06-26T14:01:02.486Z,97671.25
2019-06-26T14:03:30.134Z,97667.05
2019-06-26T14:05:57.918Z,97664.88
2019-06-26T14:08:25.349Z,97664.44
2019-06-26T14:10:52.370Z,97663.73
2019-06-26T14:13:19.785Z,97664.51
2019-06-26T14:15:47.381Z,97657.13
2019-06-26T14:18:31.194Z,97660.28
2019-06-26T14:20:58.797Z,97661.46
2019-06-26T14:23:25.738Z,97657.48
2019-06-26T14:25:53.434Z,97653.77
2019-06-26T14:28:20.421Z,97651.56
2019-06-26T14:30:48.103Z,97648.64
2019-06-26T14:33:15.502Z,97641.62
2019-06-26T14:35:42.948Z,97644.81
2019-06-26T14:38:10.437Z,97646.19
2019-06-26T14:40:37.966Z,97644.05
2019-06-26T14:43:05.697Z,97641.18
2019-06-26T14:45:33.303Z,97634.44
2019-06-26T14:48:01.195Z,97631.01
2019-06-26T14:50:28.865Z,97638.87
2019-06-26T14:52:56.823Z,97641.25
2019-06-26T14:55:24.283Z,97630.23
2019-06-26T14:57:51.695Z,97636.44
2019-06-26T15:00:19.218Z,97623.28
2019-06-26T15:02:46.211Z,97627.73
2019-06-26T15:05:13.841Z,97623.37
2019-06-26T15:07:41.439Z,97624.77
2019-06-26T15:10:09.536Z,97617.81
2019-06-26T15:12:37.165Z,97615.50
2019-06-26T15:15:04.874Z,97612.00
2019-06-26T15:17:32.384Z,97606.91
2019-06-26T15:19:59.960Z,97608.18
2019-06-26T15:22:27.411Z,97613.17
2019-06-26T15:24:55.310Z,97614.45
2019-06-26T15:27:22.773Z,97606.50
2019-06-26T15:29:50.188Z,97607.61
2019-06-26T15:32:17.599Z,97599.13
2019-06-26T15:34:45.027Z,97604.18
2019-06-26T15:37:12.430Z,97599.97
2019-06-26T15:39:39.864Z,97590.05
2019-06-26T15:42:07.381Z,97588.69
2019-06-26T15:44:35.305Z,97584.50
2019-06-26T15:47:02.731Z,97584.23
2019-06-26T15:49:30.982Z,97587.34
2019-06-26T15:52:14.066Z,97586.42
2019-06-26T15:54:26.433Z,97591.57
2019-06-26T15:56:53.903Z,97588.81
2019-06-26T15:59:21.891Z,97585.75
2019-06-26T16:01:49.342Z,97588.23
2019-06-26T16:04:17.108Z,97578.05
2019-06-26T16:06:44.528Z,97574.38
2019-06-26T16:09:12.007Z,97574.16
2019-06-26T16:11:39.470Z,97568.56
2019-06-26T16:14:06.950Z,97566.48
2019-06-26T16:16:34.501Z,97568.58
2019-06-26T16:19:20.870Z,97567.52
2019-06-26T16:21:48.720Z,97562.21
2019-06-26T16:24:16.221Z,97559.16
2019-06-26T16:26:44.236Z,97556.03
2019-06-26T16:29:11.932Z,97557.25
2019-06-26T16:31:39.373Z,97551.08
2019-06-26T16:34:06.819Z,97558.94
2019-06-26T16:36:34.251Z,97548.86
2019-06-26T16:39:01.906Z,97554.84
2019-06-26T16:41:29.616Z,97552.97
2019-06-26T16:43:57.081Z,97549.90
2019-06-26T16:46:24.625Z,97552.63
2019-06-26T16:48:52.213Z,97548.82
2019-06-26T16:51:19.707Z,97550.02
2019-06-26T16:53:47.324Z,97548.23
2019-06-26T16:56:14.858Z,97546.84
2019-06-26T16:58:42.702Z,97546.84
2019-06-26T17:01:10.126Z,97544.35
2019-06-26T17:03:38.342Z,97552.89
2019-06-26T17:06:05.808Z,97545.14
2019-06-26T17:08:33.223Z,97553.00
2019-06-26T17:11:00.817Z,97545.67
2019-06-26T17:13:28.825Z,97545.63
2019-06-26T17:15:56.363Z,97547.36
2019-06-26T17:18:23.867Z,97542.73
2019-06-26T17:20:51.380Z,97549.11
2019-06-26T17:23:18.898Z,97545.33
2019-06-26T17:25:46.362Z,97549.09
2019-06-26T17:28:13.863Z,97544.55
2019-06-26T17:30:41.450Z,97549.41
2019-06-26T17:33:08.896Z,97556.86
2019-06-26T17:35:36.361Z,97555.91
2019-06-26T17:38:03.864Z,97555.01
2019-06-26T17:40:31.510Z,97555.01
2019-06-26T17:43:11.709Z,97551.34
2019-06-26T17:45:26.663Z,97556.12
2019-06-26T17:47:54.077Z,97556.59
2019-06-26T17:50:21.577Z,97565.95
2019-06-26T17:52:49.051Z,97559.26
2019-06-26T17:55:16.619Z,97550.56
2019-06-26T17:57:47.394Z,97555.81
2019-06-26T18:00:12.232Z,97555.81
2019-06-26T18:02:39.890Z,97554.61
2019-06-26T18:05:07.454Z,97568.09
2019-06-26T18:07:34.936Z,97565.19
2019-06-26T18:10:02.482Z,97567.64
2019-06-26T18:12:30.027Z,97560.66
2019-06-26T18:14:58.555Z,97567.25
2019-06-26T18:17:27.116Z,97568.04
2019-06-26T18:19:54.822Z,97566.90
2019-06-26T18:22:22.276Z,97574.06
2019-06-26T18:24:49.743Z,97571.10
2019-06-26T18:27:17.394Z,97569.48
2019-06-26T18:29:45.230Z,97579.04
2019-06-26T18:32:12.746Z,97578.29
2019-06-26T18:34:40.204Z,97577.13
2019-06-26T18:37:07.611Z,97578.30
2019-06-26T18:39:35.239Z,97577.73
2019-06-26T18:42:02.783Z,97578.34
2019-06-26T18:44:30.444Z,97581.91
2019-06-26T18:46:58.428Z,97576.78
2019-06-26T18:49:26.211Z,97579.86
2019-06-26T18:51:53.625Z,97581.98
2019-06-26T18:54:21.171Z,97587.47
2019-06-26T18:56:49.486Z,97591.64
2019-06-26T18:59:17.157Z,97586.59
2019-06-26T19:01:44.694Z,97586.56
2019-06-26T19:04:12.509Z,97592.45
2019-06-26T19:06:40.192Z,97594.38
2019-06-26T19:09:07.930Z,97595.62
2019-06-26T19:11:35.337Z,97594.46
2019-06-26T19:14:02.815Z,97595.95
2019-06-26T19:16:30.686Z,97592.01
2019-06-26T19:18:58.569Z,97597.06
2019-06-26T19:21:26.109Z,97599.40
2019-06-26T19:24:08.862Z,97602.56
2019-06-26T19:26:21.164Z,97605.88
2019-06-26T19:28:48.722Z,97603.20
2019-06-26T19:31:16.446Z,97605.45
2019-06-26T19:33:45.677Z,97609.72
2019-06-26T19:36:11.762Z,97610.92
2019-06-26T19:38:39.453Z,97613.66
2019-06-26T19:41:08.578Z,97612.15
2019-06-26T19:43:34.500Z,97621.63
2019-06-26T19:46:02.012Z,97623.37
2019-06-26T19:48:29.464Z,97624.00
2019-06-26T19:50:56.997Z,97627.47
2019-06-26T19:53:25.066Z,97627.47
2019-06-26T19:55:52.542Z,97631.61
2019-06-26T19:58:21.704Z,97624.66
2019-06-26T20:00:48.931Z,97633.80
2019-06-26T20:03:16.461Z,97640.78
2019-06-26T20:05:43.928Z,97645.47
2019-06-26T20:08:11.499Z,97638.62
2019-06-26T20:10:38.917Z,97642.66
2019-06-26T20:13:07.124Z,97646.00
2019-06-26T20:15:34.723Z,97642.95
2019-06-26T20:18:04.256Z,97644.31
2019-06-26T20:20:30.021Z,97650.56
2019-06-26T20:22:57.485Z,97651.91
2019-06-26T20:25:24.918Z,97654.30
2019-06-26T20:27:56.954Z,97651.69
2019-06-26T20:30:20.057Z,97656.56
2019-06-26T20:32:47.607Z,97654.27
2019-06-26T20:35:15.059Z,97651.75
2019-06-26T20:37:42.465Z,97657.94
2019-06-26T20:40:09.907Z,97662.38
2019-06-26T20:42:37.580Z,97660.78
2019-06-26T20:45:05.449Z,97666.57
2019-06-26T20:47:32.896Z,97668.22
2019-06-26T20:50:00.335Z,97668.19
2019-06-26T20:52:27.838Z,97674.64
2019-06-26T20:55:01.333Z,97673.92
2019-06-26T20:57:23.357Z,97675.80
2019-06-26T20:59:50.780Z,97678.58
2019-06-26T21:02:18.623Z,97674.69
2019-06-26T21:04:47.414Z,97678.44
2019-06-26T21:07:14.965Z,97672.77
2019-06-26T21:09:42.578Z,97674.30
2019-06-26T21:12:10.065Z,97678.20
2019-06-26T21:14:37.574Z,97681.02
2019-06-26T21:17:05.276Z,97680.07
2019-06-26T21:19:33.525Z,97681.67
2019-06-26T21:22:02.020Z,97687.14
2019-06-26T21:24:29.439Z,97686.01
2019-06-26T21:26:57.119Z,97689.49
2019-06-26T21:29:24.615Z,97684.50
2019-06-26T21:31:52.177Z,97692.06
2019-06-26T21:34:19.709Z,97690.81
2019-06-26T21:36:47.646Z,97688.41
2019-06-26T21:39:15.157Z,97684.08
2019-06-26T21:41:43.003Z,97687.80
2019-06-26T21:44:10.468Z,97687.86
2019-06-26T21:46:37.678Z,97692.16
2019-06-26T21:49:04.610Z,97694.23
2019-06-26T21:51:32.618Z,97698.28
2019-06-26T21:53:59.601Z,97694.95
2019-06-26T21:56:27.850Z,97702.16
2019-06-26T21:58:54.805Z,97700.11
2019-06-26T22:01:21.789Z,97700.05
2019-06-26T22:03:48.763Z,97706.64
2019-06-26T22:06:15.877Z,97700.66
2019-06-26T22:08:42.835Z,97706.45
2019-06-26T22:11:09.998Z,97710.36
2019-06-26T22:13:36.948Z,97708.52
2019-06-26T22:16:04.150Z,97705.18
2019-06-26T22:18:31.248Z,97710.21
2019-06-26T22:20:58.275Z,97708.45
2019-06-26T22:23:25.239Z,97706.37
2019-06-26T22:25:52.189Z,97706.66
2019-06-26T22:28:19.159Z,97715.68
2019-06-26T22:30:46.250Z,97712.84
2019-06-26T22:33:13.225Z,97718.81
2019-06-26T22:35:40.197Z,97716.66
2019-06-26T22:38:07.139Z,97716.66
2019-06-26T22:40:34.171Z,97716.95
2019-06-26T22:43:01.221Z,97719.23
2019-06-26T22:45:28.279Z,97721.04
2019-06-26T22:47:55.401Z,97718.11
2019-06-26T22:50:22.463Z,97717.91
2019-06-26T22:52:49.443Z,97720.67
2019-06-26T22:55:16.683Z,97718.12
2019-06-26T22:57:43.719Z,97726.83
2019-06-26T23:00:10.999Z,97724.88
2019-06-26T23:02:38.419Z,97725.27
2019-06-26T23:05:05.464Z,97725.55
2019-06-26T23:07:32.917Z,97728.36
2019-06-26T23:10:00.707Z,97724.05
2019-06-26T23:12:28.138Z,97724.40
2019-06-26T23:14:55.666Z,97723.33
2019-06-26T23:17:23.129Z,97725.58
2019-06-26T23:19:50.619Z,97720.58
2019-06-26T23:22:18.085Z,97720.38
2019-06-26T23:24:45.946Z,97721.61
2019-06-26T23:27:13.401Z,97715.81
2019-06-26T23:29:40.851Z,97720.06
2019-06-26T23:32:08.282Z,97718.06
2019-06-26T23:34:35.716Z,97713.92
2019-06-26T23:37:03.223Z,97716.81
2019-06-26T23:39:30.673Z,97717.00
2019-06-26T23:41:58.109Z,97714.06
2019-06-26T23:44:25.766Z,97711.00
2019-06-26T23:46:53.355Z,97710.35
2019-06-26T23:49:21.568Z,97709.25
2019-06-26T23:51:48.984Z,97702.18
2019-06-26T23:54:16.748Z,97715.42
2019-06-26T23:56:44.175Z,97709.56
2019-06-26T23:59:12.502Z,97710.91
